createdAt,value
2019-04-27T00:06:43.022Z,9.38
2019-04-27T00:11:42.165Z,9.33
2019-04-27T00:16:47.019Z,9.23
2019-04-27T00:21:40.335Z,9.16
2019-04-27T00:26:40.242Z,9.12
2019-04-27T00:31:40.283Z,9.03
2019-04-27T00:36:40.177Z,8.83
2019-04-27T00:41:40.156Z,8.72
2019-04-27T00:46:39.428Z,8.61
2019-04-27T00:51:40.185Z,8.46
2019-04-27T00:56:40.222Z,8.30
2019-04-27T01:01:40.395Z,8.12
2019-04-27T01:06:39.264Z,8.17
2019-04-27T01:16:39.181Z,8.29
2019-04-27T01:21:37.229Z,8.30
2019-04-27T01:31:39.619Z,7.81
2019-04-27T01:36:39.220Z,7.82
2019-04-27T01:41:38.995Z,7.89
2019-04-27T01:46:37.312Z,7.89
2019-04-27T01:51:36.993Z,7.67
2019-04-27T01:56:36.990Z,7.67
2019-04-27T02:01:36.625Z,7.76
2019-04-27T02:06:36.455Z,7.76
2019-04-27T02:11:38.821Z,7.52
2019-04-27T02:21:35.688Z,7.49
2019-04-27T02:26:34.410Z,7.61
2019-04-27T02:36:33.370Z,7.71
2019-04-27T02:51:31.602Z,7.97
2019-04-27T02:56:31.519Z,7.84
2019-04-27T03:01:31.484Z,7.83
2019-04-27T03:06:30.827Z,7.69
2019-04-27T03:11:30.762Z,7.81
2019-04-27T03:16:30.428Z,7.91
2019-04-27T03:26:31.129Z,8.10
2019-04-27T03:31:32.649Z,8.04
2019-04-27T03:36:31.980Z,7.98
2019-04-27T03:41:31.487Z,7.67
2019-04-27T03:46:31.533Z,7.61
2019-04-27T03:51:31.500Z,7.52
2019-04-27T04:06:29.912Z,7.86
2019-04-27T04:11:30.574Z,7.77
2019-04-27T04:16:29.827Z,7.71
2019-04-27T04:26:32.583Z,7.83
2019-04-27T04:31:32.149Z,7.69
2019-04-27T04:36:30.232Z,7.59
2019-04-27T04:41:30.389Z,7.75
2019-04-27T04:46:29.853Z,7.83
2019-04-27T04:51:30.349Z,7.90
2019-04-27T04:56:29.717Z,7.95
2019-04-27T05:01:29.977Z,8.13
2019-04-27T05:06:29.616Z,8.15
2019-04-27T05:11:29.745Z,8.20
2019-04-27T05:16:32.619Z,8.40
2019-04-27T05:21:29.829Z,8.32
2019-04-27T05:26:29.493Z,8.29
2019-04-27T05:31:29.307Z,8.45
2019-04-27T05:36:29.656Z,8.67
2019-04-27T05:46:29.784Z,8.81
2019-04-27T05:51:36.350Z,8.91
2019-04-27T05:56:28.847Z,9.01
2019-04-27T06:06:26.771Z,9.36
2019-04-27T06:16:26.876Z,9.59
2019-04-27T06:21:26.885Z,9.68
2019-04-27T06:31:24.964Z,9.75
2019-04-27T06:36:24.885Z,9.76
2019-04-27T06:41:24.864Z,9.73
2019-04-27T06:46:23.971Z,9.70
2019-04-27T06:51:23.317Z,9.64
2019-04-27T06:56:23.815Z,9.57
2019-04-27T07:06:23.905Z,9.53
2019-04-27T07:11:24.001Z,9.46
2019-04-27T07:16:22.998Z,9.46
2019-04-27T07:21:24.816Z,9.40
2019-04-27T07:36:20.962Z,9.08
2019-04-27T07:41:20.927Z,9.03
2019-04-27T07:46:20.939Z,9.10
2019-04-27T07:51:31.567Z,9.18
2019-04-27T07:56:20.931Z,9.31
2019-04-27T08:01:20.963Z,9.35
2019-04-27T08:06:20.126Z,9.27
2019-04-27T08:11:20.993Z,9.29
2019-04-27T08:16:20.744Z,9.28
2019-04-27T08:31:21.505Z,9.64
2019-04-27T08:36:20.984Z,9.81
2019-04-27T08:41:21.324Z,9.94
2019-04-27T08:51:22.076Z,9.95
2019-04-27T08:56:22.202Z,9.96
2019-04-27T09:01:21.114Z,10.00
2019-04-27T09:06:21.135Z,10.01
2019-04-27T09:11:22.080Z,9.93
2019-04-27T09:26:21.194Z,9.72
2019-04-27T09:36:21.060Z,9.72
2019-04-27T09:41:21.218Z,9.85
2019-04-27T09:46:21.102Z,9.88
2019-04-27T09:51:20.121Z,9.89
2019-04-27T09:56:20.234Z,9.89
2019-04-27T10:01:20.221Z,9.83
2019-04-27T10:06:19.203Z,10.10
2019-04-27T10:16:20.202Z,10.71
2019-04-27T10:26:18.644Z,10.14
2019-04-27T10:31:18.272Z,8.79
2019-04-27T10:36:17.274Z,7.66
2019-04-27T10:41:17.230Z,7.46
2019-04-27T10:46:16.239Z,7.55
2019-04-27T10:51:16.503Z,7.65
2019-04-27T11:01:15.656Z,7.62
2019-04-27T11:06:16.549Z,7.97
2019-04-27T11:11:17.545Z,8.13
2019-04-27T11:21:16.356Z,8.64
2019-04-27T11:26:16.374Z,8.59
2019-04-27T11:31:17.345Z,8.67
2019-04-27T11:36:17.037Z,8.74
2019-04-27T11:41:16.153Z,8.85
2019-04-27T11:46:16.375Z,9.07
2019-04-27T12:01:13.362Z,8.97
2019-04-27T12:06:12.389Z,8.66
2019-04-27T12:11:12.363Z,8.19
2019-04-27T12:16:12.363Z,7.93
2019-04-27T12:21:13.408Z,7.74
2019-04-27T12:26:12.876Z,7.63
2019-04-27T12:31:12.506Z,7.74
2019-04-27T12:36:13.440Z,7.94
2019-04-27T12:41:14.436Z,8.21
2019-04-27T12:46:16.068Z,8.83
2019-04-27T12:51:14.497Z,9.03
2019-04-27T12:56:16.640Z,9.15
2019-04-27T13:01:15.734Z,9.66
2019-04-27T13:06:15.458Z,9.93
2019-04-27T13:11:16.210Z,10.16
2019-04-27T13:16:16.516Z,10.73
2019-04-27T13:21:15.675Z,11.21
2019-04-27T13:31:12.860Z,11.56
2019-04-27T13:41:11.631Z,10.55
2019-04-27T13:46:10.611Z,11.22
2019-04-27T13:51:10.517Z,12.26
2019-04-27T13:56:10.090Z,12.39
2019-04-27T14:01:10.572Z,12.35
2019-04-27T14:06:09.553Z,12.86
2019-04-27T14:11:09.729Z,12.47
2019-04-27T14:16:09.707Z,11.72
2019-04-27T14:21:09.588Z,11.69
2019-04-27T14:26:09.014Z,12.78
2019-04-27T14:36:08.247Z,11.81
2019-04-27T14:46:08.125Z,11.38
2019-04-27T14:51:08.749Z,10.84
2019-04-27T14:56:08.772Z,10.60
2019-04-27T15:01:08.209Z,10.80
2019-04-27T15:06:06.722Z,10.65
2019-04-27T15:11:10.487Z,12.05
2019-04-27T15:16:08.297Z,12.37
2019-04-27T15:21:06.910Z,14.08
2019-04-27T15:26:06.984Z,13.64
2019-04-27T15:36:08.409Z,13.67
2019-04-27T15:41:08.679Z,11.81
2019-04-27T15:46:08.295Z,11.09
2019-04-27T15:51:16.246Z,10.86
2019-04-27T16:01:09.131Z,8.44
2019-04-27T16:06:08.139Z,7.86
2019-04-27T16:16:05.831Z,7.64
2019-04-27T16:21:07.158Z,7.77
2019-04-27T16:26:10.053Z,7.84
2019-04-27T16:31:04.764Z,7.74
2019-04-27T16:36:06.985Z,7.66
2019-04-27T16:46:05.410Z,7.87
2019-04-27T16:51:03.850Z,8.10
2019-04-27T16:56:06.229Z,8.15
2019-04-27T17:01:06.726Z,8.17
2019-04-27T17:06:07.893Z,8.07
2019-04-27T17:11:08.370Z,8.03
2019-04-27T17:21:16.102Z,8.14
2019-04-27T17:26:13.964Z,8.18
2019-04-27T17:31:03.906Z,8.33
2019-04-27T17:36:03.097Z,8.39
2019-04-27T17:41:04.653Z,8.34
2019-04-27T17:46:02.947Z,8.26
2019-04-27T17:51:03.665Z,8.14
2019-04-27T17:56:05.978Z,8.05
2019-04-27T18:01:03.006Z,7.90
2019-04-27T18:06:02.733Z,7.82
2019-04-27T18:11:03.288Z,7.84
2019-04-27T18:21:00.889Z,6.73
2019-04-27T18:26:00.967Z,6.53
2019-04-27T18:30:59.794Z,6.36
2019-04-27T18:36:05.456Z,6.22
2019-04-27T18:41:03.099Z,6.16
2019-04-27T18:45:58.840Z,6.12
2019-04-27T18:50:59.061Z,6.07
2019-04-27T18:56:05.156Z,6.06
2019-04-27T19:00:58.906Z,6.09
2019-04-27T19:05:58.513Z,6.09
2019-04-27T19:11:00.060Z,6.17
2019-04-27T19:20:59.224Z,6.16
2019-04-27T19:25:58.640Z,6.19
2019-04-27T19:30:59.428Z,6.19
2019-04-27T19:35:58.481Z,6.20
2019-04-27T19:45:59.951Z,6.25
2019-04-27T19:51:00.191Z,6.26
2019-04-27T19:55:59.476Z,6.24
2019-04-27T20:01:09.696Z,6.19
2019-04-27T20:05:57.298Z,6.15
2019-04-27T20:10:56.268Z,6.14
2019-04-27T20:15:57.574Z,6.17
2019-04-27T20:20:56.300Z,6.16
2019-04-27T20:25:58.455Z,6.16
2019-04-27T20:30:57.016Z,6.16
2019-04-27T20:35:57.328Z,6.26
2019-04-27T20:40:56.442Z,6.31
2019-04-27T20:50:55.151Z,6.37
2019-04-27T20:55:55.508Z,6.45
2019-04-27T21:05:54.674Z,6.36
2019-04-27T21:10:53.097Z,6.36
2019-04-27T21:20:53.121Z,6.31
2019-04-27T21:25:53.616Z,6.29
2019-04-27T21:30:52.113Z,6.24
2019-04-27T21:35:51.358Z,6.22
2019-04-27T21:45:51.107Z,6.18
2019-04-27T21:55:53.125Z,6.22
2019-04-27T22:00:51.359Z,6.30
2019-04-27T22:10:51.258Z,6.30
2019-04-27T22:15:51.186Z,6.25
2019-04-27T22:20:51.471Z,6.27
2019-04-27T22:30:50.591Z,6.33
2019-04-27T22:35:51.800Z,6.43
2019-04-27T22:40:50.923Z,6.56
2019-04-27T22:45:51.055Z,6.65
2019-04-27T22:50:51.438Z,6.63
2019-04-27T22:55:50.669Z,6.56
2019-04-27T23:00:51.327Z,6.43
2019-04-27T23:05:51.291Z,6.57
